sensor_id;sensor_type;location;lat;lon;timestamp;pressure;altitude;pressure_sealevel;temperature
72405;BMP280;60395;52.020;113.548;2023-02-01T00:02:41;93636.66;;;-17.21
72405;BMP280;60395;52.020;113.548;2023-02-01T00:05:57;93646.44;;;-17.12
72405;BMP280;60395;52.020;113.548;2023-02-01T00:09:02;93642.94;;;-17.04
72405;BMP280;60395;52.020;113.548;2023-02-01T00:12:05;93643.34;;;-16.94
72405;BMP280;60395;52.020;113.548;2023-02-01T00:15:08;93649.97;;;-16.91
72405;BMP280;60395;52.020;113.548;2023-02-01T00:18:11;93653.34;;;-16.88
72405;BMP280;60395;52.020;113.548;2023-02-01T00:21:17;93651.28;;;-16.84
72405;BMP280;60395;52.020;113.548;2023-02-01T00:24:20;93655.59;;;-16.79
72405;BMP280;60395;52.020;113.548;2023-02-01T00:27:24;93660.38;;;-16.76
72405;BMP280;60395;52.020;113.548;2023-02-01T00:30:27;93661.94;;;-16.73
72405;BMP280;60395;52.020;113.548;2023-02-01T00:33:31;93663.28;;;-16.66
72405;BMP280;60395;52.020;113.548;2023-02-01T00:36:35;93672.81;;;-16.59
72405;BMP280;60395;52.020;113.548;2023-02-01T00:39:38;93668.22;;;-16.55
72405;BMP280;60395;52.020;113.548;2023-02-01T00:42:42;93668.63;;;-16.51
72405;BMP280;60395;52.020;113.548;2023-02-01T00:45:46;93661.53;;;-16.47
72405;BMP280;60395;52.020;113.548;2023-02-01T00:48:49;93656.94;;;-16.43
72405;BMP280;60395;52.020;113.548;2023-02-01T00:51:53;93663.94;;;-16.35
72405;BMP280;60395;52.020;113.548;2023-02-01T00:54:56;93660.91;;;-16.28
72405;BMP280;60395;52.020;113.548;2023-02-01T00:57:59;93665.00;;;-16.25
72405;BMP280;60395;52.020;113.548;2023-02-01T01:01:09;93663.28;;;-16.12
72405;BMP280;60395;52.020;113.548;2023-02-01T01:04:13;93670.31;;;-16.04
72405;BMP280;60395;52.020;113.548;2023-02-01T01:07:16;93664.78;;;-15.97
72405;BMP280;60395;52.020;113.548;2023-02-01T01:10:20;93663.00;;;-15.84
72405;BMP280;60395;52.020;113.548;2023-02-01T01:13:24;93659.00;;;-15.74
72405;BMP280;60395;52.020;113.548;2023-02-01T01:16:29;93671.47;;;-15.62
72405;BMP280;60395;52.020;113.548;2023-02-01T01:19:33;93668.16;;;-15.52
72405;BMP280;60395;52.020;113.548;2023-02-01T01:22:36;93660.91;;;-15.36
72405;BMP280;60395;52.020;113.548;2023-02-01T01:25:40;93654.13;;;-15.28
72405;BMP280;60395;52.020;113.548;2023-02-01T01:28:43;93661.84;;;-15.21
72405;BMP280;60395;52.020;113.548;2023-02-01T01:31:47;93666.53;;;-15.12
72405;BMP280;60395;52.020;113.548;2023-02-01T01:34:50;93668.97;;;-15.06
72405;BMP280;60395;52.020;113.548;2023-02-01T01:37:53;93658.81;;;-15.00
72405;BMP280;60395;52.020;113.548;2023-02-01T01:40:57;93657.38;;;-14.96
72405;BMP280;60395;52.020;113.548;2023-02-01T01:44:02;93658.88;;;-14.87
72405;BMP280;60395;52.020;113.548;2023-02-01T01:47:06;93652.31;;;-14.77
72405;BMP280;60395;52.020;113.548;2023-02-01T01:50:14;93654.56;;;-14.73
72405;BMP280;60395;52.020;113.548;2023-02-01T01:53:23;93654.66;;;-14.66
72405;BMP280;60395;52.020;113.548;2023-02-01T01:56:28;93647.22;;;-14.58
72405;BMP280;60395;52.020;113.548;2023-02-01T01:59:35;93651.91;;;-14.49
72405;BMP280;60395;52.020;113.548;2023-02-01T02:02:41;93654.53;;;-14.41
72405;BMP280;60395;52.020;113.548;2023-02-01T02:05:48;93658.81;;;-14.36
72405;BMP280;60395;52.020;113.548;2023-02-01T02:08:51;93654.25;;;-14.25
72405;BMP280;60395;52.020;113.548;2023-02-01T02:11:57;93645.13;;;-14.15
72405;BMP280;60395;52.020;113.548;2023-02-01T02:15:00;93647.47;;;-14.03
72405;BMP280;60395;52.020;113.548;2023-02-01T02:35:23;93647.75;;;-13.47
72405;BMP280;60395;52.020;113.548;2023-02-01T02:38:45;93638.84;;;-13.48
72405;BMP280;60395;52.020;113.548;2023-02-01T02:45:54;93646.75;;;-13.30
72405;BMP280;60395;52.020;113.548;2023-02-01T02:49:20;93648.38;;;-13.20
72405;BMP280;60395;52.020;113.548;2023-02-01T02:52:25;93644.25;;;-13.10
72405;BMP280;60395;52.020;113.548;2023-02-01T02:55:47;93636.59;;;-12.96
72405;BMP280;60395;52.020;113.548;2023-02-01T02:58:55;93640.31;;;-12.77
72405;BMP280;60395;52.020;113.548;2023-02-01T03:02:17;93636.41;;;-12.57
72405;BMP280;60395;52.020;113.548;2023-02-01T03:05:47;93633.13;;;-12.44
72405;BMP280;60395;52.020;113.548;2023-02-01T03:08:57;93626.09;;;-12.30
72405;BMP280;60395;52.020;113.548;2023-02-01T03:12:06;93623.28;;;-12.19
72405;BMP280;60395;52.020;113.548;2023-02-01T03:15:41;93623.19;;;-12.06
72405;BMP280;60395;52.020;113.548;2023-02-01T03:22:09;93614.47;;;-11.90
72405;BMP280;60395;52.020;113.548;2023-02-01T03:25:23;93617.19;;;-11.80
72405;BMP280;60395;52.020;113.548;2023-02-01T03:28:32;93612.69;;;-11.66
72405;BMP280;60395;52.020;113.548;2023-02-01T03:31:37;93612.38;;;-11.55
72405;BMP280;60395;52.020;113.548;2023-02-01T03:34:41;93614.25;;;-11.41
72405;BMP280;60395;52.020;113.548;2023-02-01T03:37:45;93610.22;;;-11.28
72405;BMP280;60395;52.020;113.548;2023-02-01T03:44:31;93601.28;;;-11.07
72405;BMP280;60395;52.020;113.548;2023-02-01T03:47:40;93602.97;;;-10.94
72405;BMP280;60395;52.020;113.548;2023-02-01T03:50:49;93607.88;;;-10.88
72405;BMP280;60395;52.020;113.548;2023-02-01T03:53:55;93591.28;;;-10.82
72405;BMP280;60395;52.020;113.548;2023-02-01T03:57:07;93584.84;;;-10.75
72405;BMP280;60395;52.020;113.548;2023-02-01T04:00:23;93588.03;;;-10.67
72405;BMP280;60395;52.020;113.548;2023-02-01T04:03:29;93569.94;;;-10.63
72405;BMP280;60395;52.020;113.548;2023-02-01T04:06:33;93568.94;;;-10.60
72405;BMP280;60395;52.020;113.548;2023-02-01T04:09:37;93561.97;;;-10.52
72405;BMP280;60395;52.020;113.548;2023-02-01T04:12:41;93561.63;;;-10.49
72405;BMP280;60395;52.020;113.548;2023-02-01T04:15:44;93559.91;;;-10.46
72405;BMP280;60395;52.020;113.548;2023-02-01T04:18:48;93556.50;;;-10.34
72405;BMP280;60395;52.020;113.548;2023-02-01T04:21:51;93552.94;;;-10.30
72405;BMP280;60395;52.020;113.548;2023-02-01T04:24:54;93556.63;;;-10.24
72405;BMP280;60395;52.020;113.548;2023-02-01T04:27:57;93544.41;;;-10.18
72405;BMP280;60395;52.020;113.548;2023-02-01T04:31:01;93549.13;;;-10.07
72405;BMP280;60395;52.020;113.548;2023-02-01T04:34:05;93539.13;;;-10.05
72405;BMP280;60395;52.020;113.548;2023-02-01T04:37:08;93538.72;;;-9.93
72405;BMP280;60395;52.020;113.548;2023-02-01T04:40:11;93526.13;;;-9.84
72405;BMP280;60395;52.020;113.548;2023-02-01T04:43:16;93518.81;;;-9.80
72405;BMP280;60395;52.020;113.548;2023-02-01T04:46:19;93512.16;;;-9.75
72405;BMP280;60395;52.020;113.548;2023-02-01T04:49:23;93513.28;;;-9.61
72405;BMP280;60395;52.020;113.548;2023-02-01T04:52:28;93509.63;;;-9.50
72405;BMP280;60395;52.020;113.548;2023-02-01T04:55:31;93509.25;;;-9.47
72405;BMP280;60395;52.020;113.548;2023-02-01T04:58:34;93504.16;;;-9.47
72405;BMP280;60395;52.020;113.548;2023-02-01T05:01:37;93509.09;;;-9.49
72405;BMP280;60395;52.020;113.548;2023-02-01T05:04:40;93500.44;;;-9.46
72405;BMP280;60395;52.020;113.548;2023-02-01T05:07:45;93495.53;;;-9.44
72405;BMP280;60395;52.020;113.548;2023-02-01T05:10:49;93491.56;;;-9.37
72405;BMP280;60395;52.020;113.548;2023-02-01T05:13:52;93484.38;;;-9.31
72405;BMP280;60395;52.020;113.548;2023-02-01T05:16:55;93491.78;;;-9.25
72405;BMP280;60395;52.020;113.548;2023-02-01T05:19:58;93488.34;;;-9.20
72405;BMP280;60395;52.020;113.548;2023-02-01T05:23:03;93484.00;;;-9.10
72405;BMP280;60395;52.020;113.548;2023-02-01T05:26:07;93483.66;;;-9.07
72405;BMP280;60395;52.020;113.548;2023-02-01T05:29:11;93479.47;;;-9.12
72405;BMP280;60395;52.020;113.548;2023-02-01T05:32:14;93478.25;;;-9.11
72405;BMP280;60395;52.020;113.548;2023-02-01T05:35:24;93473.47;;;-9.07
72405;BMP280;60395;52.020;113.548;2023-02-01T05:38:27;93470.09;;;-9.09
72405;BMP280;60395;52.020;113.548;2023-02-01T05:41:32;93463.06;;;-9.01
72405;BMP280;60395;52.020;113.548;2023-02-01T05:44:35;93461.66;;;-8.95
72405;BMP280;60395;52.020;113.548;2023-02-01T05:47:38;93454.38;;;-8.98
72405;BMP280;60395;52.020;113.548;2023-02-01T05:50:43;93454.69;;;-8.94
72405;BMP280;60395;52.020;113.548;2023-02-01T05:53:46;93449.13;;;-8.83
72405;BMP280;60395;52.020;113.548;2023-02-01T05:56:49;93448.47;;;-8.83
72405;BMP280;60395;52.020;113.548;2023-02-01T05:59:52;93439.31;;;-8.86
72405;BMP280;60395;52.020;113.548;2023-02-01T06:02:55;93446.88;;;-8.79
72405;BMP280;60395;52.020;113.548;2023-02-01T06:05:59;93435.91;;;-8.72
72405;BMP280;60395;52.020;113.548;2023-02-01T06:09:03;93433.81;;;-8.66
72405;BMP280;60395;52.020;113.548;2023-02-01T06:12:07;93429.69;;;-8.61
72405;BMP280;60395;52.020;113.548;2023-02-01T06:15:11;93421.75;;;-8.65
72405;BMP280;60395;52.020;113.548;2023-02-01T06:18:14;93414.56;;;-8.59
72405;BMP280;60395;52.020;113.548;2023-02-01T06:21:18;93417.25;;;-8.57
72405;BMP280;60395;52.020;113.548;2023-02-01T06:24:26;93401.97;;;-8.57
72405;BMP280;60395;52.020;113.548;2023-02-01T06:27:29;93397.00;;;-8.55
72405;BMP280;60395;52.020;113.548;2023-02-01T06:30:33;93411.16;;;-8.44
72405;BMP280;60395;52.020;113.548;2023-02-01T06:33:37;93405.66;;;-8.41
72405;BMP280;60395;52.020;113.548;2023-02-01T06:36:41;93401.25;;;-8.40
72405;BMP280;60395;52.020;113.548;2023-02-01T06:39:44;93406.34;;;-8.31
72405;BMP280;60395;52.020;113.548;2023-02-01T06:42:48;93395.09;;;-8.28
72405;BMP280;60395;52.020;113.548;2023-02-01T06:45:52;93400.50;;;-8.24
72405;BMP280;60395;52.020;113.548;2023-02-01T06:48:56;93399.41;;;-8.21
72405;BMP280;60395;52.020;113.548;2023-02-01T06:51:59;93400.94;;;-8.17
72405;BMP280;60395;52.020;113.548;2023-02-01T06:55:03;93395.69;;;-8.10
72405;BMP280;60395;52.020;113.548;2023-02-01T06:58:06;93399.09;;;-8.07
72405;BMP280;60395;52.020;113.548;2023-02-01T07:01:10;93391.41;;;-8.17
72405;BMP280;60395;52.020;113.548;2023-02-01T07:04:13;93392.44;;;-8.20
72405;BMP280;60395;52.020;113.548;2023-02-01T07:07:16;93383.09;;;-8.17
72405;BMP280;60395;52.020;113.548;2023-02-01T07:10:22;93391.00;;;-8.13
72405;BMP280;60395;52.020;113.548;2023-02-01T07:13:25;93391.16;;;-8.11
72405;BMP280;60395;52.020;113.548;2023-02-01T07:16:28;93389.41;;;-8.18
72405;BMP280;60395;52.020;113.548;2023-02-01T07:19:33;93390.75;;;-8.17
72405;BMP280;60395;52.020;113.548;2023-02-01T07:22:36;93385.38;;;-8.12
72405;BMP280;60395;52.020;113.548;2023-02-01T07:25:40;93387.28;;;-8.03
72405;BMP280;60395;52.020;113.548;2023-02-01T07:28:43;93378.44;;;-8.02
72405;BMP280;60395;52.020;113.548;2023-02-01T07:31:46;93386.19;;;-8.00
72405;BMP280;60395;52.020;113.548;2023-02-01T07:34:49;93379.38;;;-8.07
72405;BMP280;60395;52.020;113.548;2023-02-01T07:37:52;93387.69;;;-8.06
72405;BMP280;60395;52.020;113.548;2023-02-01T07:41:03;93387.81;;;-8.04
72405;BMP280;60395;52.020;113.548;2023-02-01T07:44:07;93388.34;;;-8.06
72405;BMP280;60395;52.020;113.548;2023-02-01T07:47:10;93388.72;;;-8.09
72405;BMP280;60395;52.020;113.548;2023-02-01T07:50:13;93379.38;;;-8.07
72405;BMP280;60395;52.020;113.548;2023-02-01T07:53:16;93380.66;;;-8.15
72405;BMP280;60395;52.020;113.548;2023-02-01T07:56:20;93380.66;;;-8.15
72405;BMP280;60395;52.020;113.548;2023-02-01T07:59:25;93370.47;;;-8.15
72405;BMP280;60395;52.020;113.548;2023-02-01T08:02:28;93378.25;;;-8.23
72405;BMP280;60395;52.020;113.548;2023-02-01T08:05:31;93379.94;;;-8.35
72405;BMP280;60395;52.020;113.548;2023-02-01T08:08:34;93378.69;;;-8.44
72405;BMP280;60395;52.020;113.548;2023-02-01T08:11:37;93390.91;;;-8.42
72405;BMP280;60395;52.020;113.548;2023-02-01T08:14:41;93388.03;;;-8.56
72405;BMP280;60395;52.020;113.548;2023-02-01T08:17:50;93385.22;;;-8.60
72405;BMP280;60395;52.020;113.548;2023-02-01T08:20:54;93382.50;;;-8.62
72405;BMP280;60395;52.020;113.548;2023-02-01T08:23:57;93381.94;;;-8.70
72405;BMP280;60395;52.020;113.548;2023-02-01T08:27:01;93380.84;;;-8.77
72405;BMP280;60395;52.020;113.548;2023-02-01T08:30:06;93390.22;;;-8.79
72405;BMP280;60395;52.020;113.548;2023-02-01T08:33:10;93395.50;;;-8.68
72405;BMP280;60395;52.020;113.548;2023-02-01T08:36:16;93393.84;;;-8.73
72405;BMP280;60395;52.020;113.548;2023-02-01T08:39:19;93379.56;;;-8.68
72405;BMP280;60395;52.020;113.548;2023-02-01T08:42:23;93385.41;;;-8.75
72405;BMP280;60395;52.020;113.548;2023-02-01T08:45:45;93381.19;;;-8.90
72405;BMP280;60395;52.020;113.548;2023-02-01T08:48:49;93377.31;;;-9.08
72405;BMP280;60395;52.020;113.548;2023-02-01T08:51:53;93372.63;;;-9.29
72405;BMP280;60395;52.020;113.548;2023-02-01T08:54:59;93375.34;;;-9.44
72405;BMP280;60395;52.020;113.548;2023-02-01T08:58:03;93375.47;;;-9.59
72405;BMP280;60395;52.020;113.548;2023-02-01T09:01:10;93378.22;;;-9.65
72405;BMP280;60395;52.020;113.548;2023-02-01T09:04:13;93378.81;;;-9.74
72405;BMP280;60395;52.020;113.548;2023-02-01T09:07:17;93385.84;;;-9.82
72405;BMP280;60395;52.020;113.548;2023-02-01T09:10:21;93378.66;;;-9.93
72405;BMP280;60395;52.020;113.548;2023-02-01T09:13:36;93380.28;;;-10.06
72405;BMP280;60395;52.020;113.548;2023-02-01T09:16:40;93374.25;;;-10.18
72405;BMP280;60395;52.020;113.548;2023-02-01T09:19:43;93372.59;;;-10.23
72405;BMP280;60395;52.020;113.548;2023-02-01T09:22:47;93371.47;;;-10.29
72405;BMP280;60395;52.020;113.548;2023-02-01T09:25:52;93372.03;;;-10.39
72405;BMP280;60395;52.020;113.548;2023-02-01T09:28:55;93380.56;;;-10.51
72405;BMP280;60395;52.020;113.548;2023-02-01T09:31:59;93381.47;;;-10.64
72405;BMP280;60395;52.020;113.548;2023-02-01T09:35:06;93386.78;;;-10.77
72405;BMP280;60395;52.020;113.548;2023-02-01T09:38:09;93390.25;;;-10.97
72405;BMP280;60395;52.020;113.548;2023-02-01T09:41:36;93395.03;;;-11.17
72405;BMP280;60395;52.020;113.548;2023-02-01T09:48:20;93392.72;;;-11.45
72405;BMP280;60395;52.020;113.548;2023-02-01T09:51:28;93387.88;;;-11.74
72405;BMP280;60395;52.020;113.548;2023-02-01T09:54:42;93396.84;;;-11.88
72405;BMP280;60395;52.020;113.548;2023-02-01T10:01:20;93389.25;;;-11.95
72405;BMP280;60395;52.020;113.548;2023-02-01T10:04:25;93386.03;;;-12.03
72405;BMP280;60395;52.020;113.548;2023-02-01T10:11:07;93392.78;;;-12.21
72405;BMP280;60395;52.020;113.548;2023-02-01T10:14:22;93398.50;;;-12.28
72405;BMP280;60395;52.020;113.548;2023-02-01T10:18:23;93390.06;;;-12.38
72405;BMP280;60395;52.020;113.548;2023-02-01T10:28:33;93389.81;;;-12.63
72405;BMP280;60395;52.020;113.548;2023-02-01T10:31:39;93384.19;;;-12.85
72405;BMP280;60395;52.020;113.548;2023-02-01T10:34:49;93383.97;;;-12.94
72405;BMP280;60395;52.020;113.548;2023-02-01T10:37:58;93380.56;;;-13.04
72405;BMP280;60395;52.020;113.548;2023-02-01T10:41:13;93379.00;;;-13.07
72405;BMP280;60395;52.020;113.548;2023-02-01T10:44:23;93376.66;;;-13.13
72405;BMP280;60395;52.020;113.548;2023-02-01T10:47:28;93380.00;;;-13.18
72405;BMP280;60395;52.020;113.548;2023-02-01T10:50:53;93380.16;;;-13.16
72405;BMP280;60395;52.020;113.548;2023-02-01T10:54:19;93383.38;;;-13.16
72405;BMP280;60395;52.020;113.548;2023-02-01T10:57:25;93388.97;;;-13.10
72405;BMP280;60395;52.020;113.548;2023-02-01T11:01:03;93388.97;;;-13.02
72405;BMP280;60395;52.020;113.548;2023-02-01T11:04:11;93389.66;;;-13.01
72405;BMP280;60395;52.020;113.548;2023-02-01T11:07:25;93382.06;;;-13.09
72405;BMP280;60395;52.020;113.548;2023-02-01T11:10:41;93379.34;;;-13.11
72405;BMP280;60395;52.020;113.548;2023-02-01T11:13:58;93370.88;;;-13.21
72405;BMP280;60395;52.020;113.548;2023-02-01T11:23:44;93382.94;;;-13.35
72405;BMP280;60395;52.020;113.548;2023-02-01T11:26:48;93379.19;;;-13.42
72405;BMP280;60395;52.020;113.548;2023-02-01T11:29:59;93391.69;;;-13.36
72405;BMP280;60395;52.020;113.548;2023-02-01T11:33:04;93383.81;;;-13.32
72405;BMP280;60395;52.020;113.548;2023-02-01T11:36:15;93374.50;;;-13.37
72405;BMP280;60395;52.020;113.548;2023-02-01T11:39:25;93373.97;;;-13.44
72405;BMP280;60395;52.020;113.548;2023-02-01T11:42:30;93380.13;;;-13.52
72405;BMP280;60395;52.020;113.548;2023-02-01T11:45:34;93377.56;;;-13.60
72405;BMP280;60395;52.020;113.548;2023-02-01T11:48:41;93382.75;;;-13.65
72405;BMP280;60395;52.020;113.548;2023-02-01T11:55:26;93385.34;;;-13.79
72405;BMP280;60395;52.020;113.548;2023-02-01T12:09:02;93381.59;;;-13.85
72405;BMP280;60395;52.020;113.548;2023-02-01T12:22:22;93379.50;;;-14.15
72405;BMP280;60395;52.020;113.548;2023-02-01T12:25:30;93380.91;;;-14.27
72405;BMP280;60395;52.020;113.548;2023-02-01T12:29:09;93383.19;;;-14.37
72405;BMP280;60395;52.020;113.548;2023-02-01T12:36:14;93376.91;;;-14.44
72405;BMP280;60395;52.020;113.548;2023-02-01T12:42:41;93371.47;;;-14.48
72405;BMP280;60395;52.020;113.548;2023-02-01T12:46:10;93365.75;;;-14.48
72405;BMP280;60395;52.020;113.548;2023-02-01T12:49:22;93364.53;;;-14.55
72405;BMP280;60395;52.020;113.548;2023-02-01T12:52:37;93372.09;;;-14.55
72405;BMP280;60395;52.020;113.548;2023-02-01T12:55:49;93365.69;;;-14.56
72405;BMP280;60395;52.020;113.548;2023-02-01T12:58:58;93361.50;;;-14.53
72405;BMP280;60395;52.020;113.548;2023-02-01T13:02:35;93371.09;;;-14.52
72405;BMP280;60395;52.020;113.548;2023-02-01T13:12:58;93350.00;;;-14.62
72405;BMP280;60395;52.020;113.548;2023-02-01T13:16:35;93352.47;;;-14.83
72405;BMP280;60395;52.020;113.548;2023-02-01T13:19:57;93347.34;;;-14.90
72405;BMP280;60395;52.020;113.548;2023-02-01T13:23:14;93348.78;;;-14.82
72405;BMP280;60395;52.020;113.548;2023-02-01T13:26:20;93359.81;;;-14.71
72405;BMP280;60395;52.020;113.548;2023-02-01T13:29:24;93349.81;;;-14.64
72405;BMP280;60395;52.020;113.548;2023-02-01T13:36:34;93352.63;;;-14.67
72405;BMP280;60395;52.020;113.548;2023-02-01T13:43:05;93351.47;;;-14.66
72405;BMP280;60395;52.020;113.548;2023-02-01T13:46:11;93354.75;;;-14.71
72405;BMP280;60395;52.020;113.548;2023-02-01T13:49:24;93346.03;;;-14.70
72405;BMP280;60395;52.020;113.548;2023-02-01T13:52:44;93349.19;;;-14.57
72405;BMP280;60395;52.020;113.548;2023-02-01T13:59:44;93352.22;;;-14.58
72405;BMP280;60395;52.020;113.548;2023-02-01T14:09:33;93353.13;;;-14.82
72405;BMP280;60395;52.020;113.548;2023-02-01T14:12:49;93353.63;;;-14.84
72405;BMP280;60395;52.020;113.548;2023-02-01T14:19:27;93345.31;;;-14.92
72405;BMP280;60395;52.020;113.548;2023-02-01T14:22:33;93340.97;;;-14.91
72405;BMP280;60395;52.020;113.548;2023-02-01T14:25:37;93345.00;;;-14.88
72405;BMP280;60395;52.020;113.548;2023-02-01T14:28:56;93344.63;;;-14.92
72405;BMP280;60395;52.020;113.548;2023-02-01T14:35:21;93341.84;;;-15.15
72405;BMP280;60395;52.020;113.548;2023-02-01T14:38:27;93338.28;;;-15.20
72405;BMP280;60395;52.020;113.548;2023-02-01T14:41:35;93332.56;;;-15.20
72405;BMP280;60395;52.020;113.548;2023-02-01T14:44:39;93332.63;;;-15.13
72405;BMP280;60395;52.020;113.548;2023-02-01T14:51:12;93335.56;;;-15.35
72405;BMP280;60395;52.020;113.548;2023-02-01T14:54:18;93335.25;;;-15.45
72405;BMP280;60395;52.020;113.548;2023-02-01T14:57:25;93330.44;;;-15.43
72405;BMP280;60395;52.020;113.548;2023-02-01T15:00:30;93335.06;;;-15.33
72405;BMP280;60395;52.020;113.548;2023-02-01T15:04:01;93329.25;;;-15.28
72405;BMP280;60395;52.020;113.548;2023-02-01T15:07:07;93326.84;;;-15.34
72405;BMP280;60395;52.020;113.548;2023-02-01T15:10:14;93326.84;;;-15.34
72405;BMP280;60395;52.020;113.548;2023-02-01T15:13:26;93325.56;;;-15.27
72405;BMP280;60395;52.020;113.548;2023-02-01T15:16:29;93325.28;;;-15.24
72405;BMP280;60395;52.020;113.548;2023-02-01T15:19:32;93325.75;;;-15.12
72405;BMP280;60395;52.020;113.548;2023-02-01T15:22:35;93316.88;;;-15.13
72405;BMP280;60395;52.020;113.548;2023-02-01T15:25:38;93321.81;;;-15.07
72405;BMP280;60395;52.020;113.548;2023-02-01T15:28:42;93322.06;;;-15.11
72405;BMP280;60395;52.020;113.548;2023-02-01T15:31:52;93319.16;;;-15.15
72405;BMP280;60395;52.020;113.548;2023-02-01T15:34:58;93316.19;;;-15.14
72405;BMP280;60395;52.020;113.548;2023-02-01T15:41:30;93311.78;;;-15.00
72405;BMP280;60395;52.020;113.548;2023-02-01T15:44:39;93308.31;;;-14.97
72405;BMP280;60395;52.020;113.548;2023-02-01T15:47:49;93310.91;;;-14.89
72405;BMP280;60395;52.020;113.548;2023-02-01T15:50:54;93308.56;;;-14.87
72405;BMP280;60395;52.020;113.548;2023-02-01T15:54:00;93305.69;;;-14.91
72405;BMP280;60395;52.020;113.548;2023-02-01T15:57:04;93310.84;;;-14.97
72405;BMP280;60395;52.020;113.548;2023-02-01T16:07:06;93308.31;;;-15.23
72405;BMP280;60395;52.020;113.548;2023-02-01T16:10:26;93304.69;;;-15.35
72405;BMP280;60395;52.020;113.548;2023-02-01T16:13:29;93294.72;;;-15.41
72405;BMP280;60395;52.020;113.548;2023-02-01T16:16:33;93300.34;;;-15.48
72405;BMP280;60395;52.020;113.548;2023-02-01T16:19:36;93300.44;;;-15.54
72405;BMP280;60395;52.020;113.548;2023-02-01T16:22:39;93301.88;;;-15.58
72405;BMP280;60395;52.020;113.548;2023-02-01T16:25:43;93298.78;;;-15.64
72405;BMP280;60395;52.020;113.548;2023-02-01T16:28:46;93293.53;;;-15.66
72405;BMP280;60395;52.020;113.548;2023-02-01T16:31:50;93296.81;;;-15.71
72405;BMP280;60395;52.020;113.548;2023-02-01T16:34:54;93300.09;;;-15.77
72405;BMP280;60395;52.020;113.548;2023-02-01T16:37:59;93298.34;;;-15.82
72405;BMP280;60395;52.020;113.548;2023-02-01T16:41:04;93298.00;;;-15.86
72405;BMP280;60395;52.020;113.548;2023-02-01T16:44:08;93289.34;;;-15.90
72405;BMP280;60395;52.020;113.548;2023-02-01T16:47:21;93289.53;;;-16.01
72405;BMP280;60395;52.020;113.548;2023-02-01T16:50:25;93286.63;;;-16.19
72405;BMP280;60395;52.020;113.548;2023-02-01T16:53:30;93283.38;;;-16.32
72405;BMP280;60395;52.020;113.548;2023-02-01T16:56:44;93285.03;;;-16.35
72405;BMP280;60395;52.020;113.548;2023-02-01T16:59:48;93283.75;;;-16.42
72405;BMP280;60395;52.020;113.548;2023-02-01T17:02:52;93281.50;;;-16.45
72405;BMP280;60395;52.020;113.548;2023-02-01T17:05:55;93279.75;;;-16.50
72405;BMP280;60395;52.020;113.548;2023-02-01T17:09:00;93277.31;;;-16.56
72405;BMP280;60395;52.020;113.548;2023-02-01T17:12:05;93273.03;;;-16.61
72405;BMP280;60395;52.020;113.548;2023-02-01T17:15:10;93275.84;;;-16.64
72405;BMP280;60395;52.020;113.548;2023-02-01T17:18:15;93289.63;;;-16.71
72405;BMP280;60395;52.020;113.548;2023-02-01T17:21:18;93283.03;;;-16.74
72405;BMP280;60395;52.020;113.548;2023-02-01T17:24:24;93278.84;;;-16.85
72405;BMP280;60395;52.020;113.548;2023-02-01T17:27:40;93282.66;;;-16.97
72405;BMP280;60395;52.020;113.548;2023-02-01T17:30:43;93279.97;;;-17.05
72405;BMP280;60395;52.020;113.548;2023-02-01T17:33:47;93276.44;;;-17.15
72405;BMP280;60395;52.020;113.548;2023-02-01T17:36:50;93273.34;;;-17.45
72405;BMP280;60395;52.020;113.548;2023-02-01T17:39:53;93274.41;;;-17.59
72405;BMP280;60395;52.020;113.548;2023-02-01T17:42:57;93273.06;;;-17.60
72405;BMP280;60395;52.020;113.548;2023-02-01T17:46:04;93277.34;;;-17.55
72405;BMP280;60395;52.020;113.548;2023-02-01T17:49:08;93277.34;;;-17.55
72405;BMP280;60395;52.020;113.548;2023-02-01T17:52:16;93274.94;;;-17.67
72405;BMP280;60395;52.020;113.548;2023-02-01T17:55:23;93277.09;;;-17.76
72405;BMP280;60395;52.020;113.548;2023-02-01T17:58:27;93275.63;;;-17.90
72405;BMP280;60395;52.020;113.548;2023-02-01T18:01:37;93275.19;;;-17.94
72405;BMP280;60395;52.020;113.548;2023-02-01T18:04:42;93273.13;;;-17.90
72405;BMP280;60395;52.020;113.548;2023-02-01T18:07:45;93276.84;;;-18.03
72405;BMP280;60395;52.020;113.548;2023-02-01T18:10:50;93276.91;;;-18.08
72405;BMP280;60395;52.020;113.548;2023-02-01T18:13:54;93280.41;;;-17.92
72405;BMP280;60395;52.020;113.548;2023-02-01T18:16:57;93279.69;;;-17.87
72405;BMP280;60395;52.020;113.548;2023-02-01T18:20:00;93278.91;;;-17.77
72405;BMP280;60395;52.020;113.548;2023-02-01T18:23:03;93279.22;;;-17.61
72405;BMP280;60395;52.020;113.548;2023-02-01T18:26:10;93273.47;;;-17.81
72405;BMP280;60395;52.020;113.548;2023-02-01T18:29:14;93273.91;;;-18.01
72405;BMP280;60395;52.020;113.548;2023-02-01T18:32:17;93260.84;;;-18.24
72405;BMP280;60395;52.020;113.548;2023-02-01T18:35:28;93272.72;;;-18.30
72405;BMP280;60395;52.020;113.548;2023-02-01T18:38:32;93282.44;;;-18.15
72405;BMP280;60395;52.020;113.548;2023-02-01T18:41:35;93265.47;;;-18.04
72405;BMP280;60395;52.020;113.548;2023-02-01T18:44:38;93269.56;;;-18.06
72405;BMP280;60395;52.020;113.548;2023-02-01T18:47:41;93260.81;;;-18.18
72405;BMP280;60395;52.020;113.548;2023-02-01T18:50:44;93259.50;;;-18.25
72405;BMP280;60395;52.020;113.548;2023-02-01T18:53:48;93255.28;;;-18.41
72405;BMP280;60395;52.020;113.548;2023-02-01T18:56:51;93251.94;;;-18.55
72405;BMP280;60395;52.020;113.548;2023-02-01T18:59:54;93250.56;;;-18.56
72405;BMP280;60395;52.020;113.548;2023-02-01T19:02:58;93249.91;;;-18.56
72405;BMP280;60395;52.020;113.548;2023-02-01T19:06:01;93251.22;;;-18.50
72405;BMP280;60395;52.020;113.548;2023-02-01T19:09:04;93243.81;;;-18.67
72405;BMP280;60395;52.020;113.548;2023-02-01T19:12:07;93241.63;;;-18.81
72405;BMP280;60395;52.020;113.548;2023-02-01T19:15:12;93241.38;;;-18.78
72405;BMP280;60395;52.020;113.548;2023-02-01T19:18:17;93235.75;;;-18.84
72405;BMP280;60395;52.020;113.548;2023-02-01T19:21:22;93233.28;;;-18.95
72405;BMP280;60395;52.020;113.548;2023-02-01T19:24:25;93237.16;;;-18.94
72405;BMP280;60395;52.020;113.548;2023-02-01T19:27:29;93236.69;;;-18.93